createdAt,value
2023-02-23T00:00:53.232Z,8.79
2023-02-23T00:05:54.526Z,8.68
2023-02-23T00:10:56.211Z,8.68
2023-02-23T00:15:57.568Z,8.64
2023-02-23T00:21:31.445Z,8.51
2023-02-23T00:26:01.625Z,8.55
2023-02-23T00:31:03.805Z,8.53
2023-02-23T00:36:05.449Z,8.5
2023-02-23T00:41:07.519Z,8.51
2023-02-23T00:46:08.984Z,8.51
2023-02-23T00:51:11.007Z,8.57
2023-02-23T00:56:13.094Z,8.49
2023-02-23T01:01:15.344Z,8.41
2023-02-23T01:06:16.685Z,8.32
2023-02-23T01:11:18.595Z,8.18
2023-02-23T01:16:20.077Z,8.18
2023-02-23T01:21:21.535Z,8.09
2023-02-23T01:26:23.689Z,8.1
2023-02-23T01:31:25.179Z,8.1
2023-02-23T01:36:26.794Z,8.14
2023-02-23T01:41:28.591Z,8.18
2023-02-23T01:46:30.068Z,8.12
2023-02-23T01:51:31.559Z,8.2
2023-02-23T01:56:32.755Z,8.24
2023-02-23T02:01:34.236Z,8.24
2023-02-23T02:06:36.223Z,8.28
2023-02-23T02:11:37.970Z,8.29
2023-02-23T02:16:39.693Z,8.31
2023-02-23T02:21:40.967Z,8.29
2023-02-23T02:26:42.646Z,8.03
2023-02-23T02:31:44.582Z,8.03
2023-02-23T02:36:46.206Z,7.9
2023-02-23T02:41:47.375Z,7.78
2023-02-23T02:46:48.854Z,7.74
2023-02-23T02:51:50.449Z,7.63
2023-02-23T02:56:52.646Z,7.58
2023-02-23T03:01:55.019Z,7.42
2023-02-23T03:06:56.243Z,7.39
2023-02-23T03:11:57.590Z,7.43
2023-02-23T03:16:59.703Z,7.36
2023-02-23T03:22:01.209Z,7.29
2023-02-23T03:27:03.005Z,7.31
2023-02-23T03:32:04.710Z,7.3
2023-02-23T03:37:05.979Z,7.19
2023-02-23T03:42:07.954Z,7.13
2023-02-23T03:47:10.050Z,7.2
2023-02-23T03:52:11.521Z,7.24
2023-02-23T03:57:13.605Z,7.28
2023-02-23T04:02:15.139Z,7.32
2023-02-23T04:07:16.352Z,7.29
2023-02-23T04:12:17.733Z,7.37
2023-02-23T04:17:19.218Z,7.41
2023-02-23T04:22:20.767Z,7.44
2023-02-23T04:27:22.239Z,7.49
2023-02-23T04:32:23.705Z,7.53
2023-02-23T04:37:25.801Z,7.55
2023-02-23T04:42:27.164Z,7.57
2023-02-23T04:47:28.670Z,7.62
2023-02-23T04:52:30.245Z,7.58
2023-02-23T04:57:31.953Z,7.64
2023-02-23T05:02:34.077Z,7.7
2023-02-23T05:07:35.382Z,7.77
2023-02-23T05:12:36.662Z,7.84
2023-02-23T05:17:37.970Z,7.9
2023-02-23T05:22:39.794Z,7.95
2023-02-23T05:27:41.410Z,7.9
2023-02-23T05:32:43.359Z,7.8
2023-02-23T05:37:44.739Z,7.78
2023-02-23T05:42:46.271Z,7.8
2023-02-23T05:47:47.887Z,7.76
2023-02-23T05:52:49.830Z,7.74
2023-02-23T05:57:51.817Z,7.76
2023-02-23T06:02:54.102Z,7.76
2023-02-23T06:07:55.343Z,7.8
2023-02-23T06:12:57.274Z,7.75
2023-02-23T06:17:58.895Z,7.79
2023-02-23T06:23:01.008Z,7.82
2023-02-23T06:28:02.461Z,7.84
2023-02-23T06:33:04.598Z,7.83
2023-02-23T06:38:06.333Z,7.86
2023-02-23T06:43:08.139Z,7.86
2023-02-23T06:48:09.939Z,7.86
2023-02-23T06:53:12.056Z,7.85
2023-02-23T06:58:14.057Z,7.81
2023-02-23T07:03:15.665Z,7.82
2023-02-23T07:08:16.865Z,7.86
2023-02-23T07:13:18.093Z,7.95
2023-02-23T07:18:28.423Z,7.98
2023-02-23T07:23:21.506Z,8.04
2023-02-23T07:28:22.959Z,8.03
2023-02-23T07:33:24.455Z,8.12
2023-02-23T07:38:26.198Z,8.22
2023-02-23T07:43:28.327Z,8.32
2023-02-23T07:48:30.040Z,8.39
2023-02-23T07:53:31.855Z,8.47
2023-02-23T07:58:33.874Z,8.55
2023-02-23T08:03:35.281Z,8.68
2023-02-23T08:08:36.786Z,8.85
2023-02-23T08:13:38.850Z,8.96
2023-02-23T08:18:40.642Z,9.08
2023-02-23T08:23:42.663Z,9.17
2023-02-23T08:28:44.524Z,9.26
2023-02-23T08:33:45.708Z,9.35
2023-02-23T08:38:47.607Z,9.43
2023-02-23T08:43:49.715Z,9.56
2023-02-23T08:48:51.597Z,9.72
2023-02-23T08:53:53.746Z,9.81
2023-02-23T08:58:55.663Z,9.88
2023-02-23T09:03:57.673Z,9.97
2023-02-23T09:08:59.748Z,10.02
2023-02-23T09:14:01.177Z,10
2023-02-23T09:19:02.957Z,10.07
2023-02-23T09:24:04.661Z,10.14
2023-02-23T09:29:06.151Z,10.18
2023-02-23T09:34:08.266Z,10.35
2023-02-23T09:39:10.017Z,10.42
2023-02-23T09:44:11.928Z,10.52
2023-02-23T09:49:13.536Z,10.59
2023-02-23T09:54:15.171Z,10.7
2023-02-23T09:59:16.342Z,10.72
2023-02-23T10:04:18.395Z,10.81
2023-02-23T10:09:20.203Z,10.95
2023-02-23T10:14:21.383Z,11.12
2023-02-23T10:19:23.441Z,11.18
2023-02-23T10:24:24.845Z,11.34
2023-02-23T10:29:26.975Z,11.31
2023-02-23T10:34:28.730Z,11.48
2023-02-23T10:39:29.384Z,11.54
2023-02-23T10:44:31.335Z,11.65
2023-02-23T10:49:32.502Z,11.78
2023-02-23T10:54:34.505Z,11.75
2023-02-23T10:59:35.727Z,11.78
2023-02-23T11:04:37.152Z,11.76
2023-02-23T11:09:46.862Z,11.8
2023-02-23T11:14:41.249Z,11.88
2023-02-23T11:19:42.657Z,11.89
2023-02-23T11:24:44.655Z,11.9
2023-02-23T11:29:45.987Z,11.73
2023-02-23T11:34:47.952Z,11.55
2023-02-23T11:39:49.979Z,11.43
2023-02-23T11:59:57.704Z,11.59
2023-02-23T12:20:03.972Z,11.85
2023-02-23T12:30:09.048Z,12.02
2023-02-23T12:40:11.319Z,12.22
2023-02-23T12:45:13.109Z,12.31
2023-02-23T12:50:14.710Z,12.34
2023-02-23T12:55:16.800Z,12.38
2023-02-23T13:00:18.609Z,12.36
2023-02-23T13:10:22.636Z,12.35
2023-02-23T13:15:23.986Z,12.39
2023-02-23T13:20:25.490Z,12.45
2023-02-23T13:25:27.323Z,12.54
2023-02-23T13:30:29.173Z,12.7
2023-02-23T13:35:30.986Z,12.82
2023-02-23T13:40:32.848Z,12.9
2023-02-23T13:45:34.522Z,12.94
2023-02-23T13:50:35.738Z,13.07
2023-02-23T13:55:48.502Z,13.11
2023-02-23T14:00:39.033Z,13.07
2023-02-23T14:05:40.362Z,13.16
2023-02-23T14:10:42.166Z,13.25
2023-02-23T14:15:43.398Z,13.28
2023-02-23T14:20:45.345Z,13.35
2023-02-23T14:25:55.692Z,13.49
2023-02-23T14:30:55.447Z,13.79
2023-02-23T14:35:56.690Z,13.81
2023-02-23T14:40:58.621Z,13.82
2023-02-23T14:46:00.325Z,13.84
2023-02-23T14:51:08.648Z,13.76
2023-02-23T14:56:04.152Z,13.71
2023-02-23T15:01:05.617Z,13.49
2023-02-23T15:06:07.164Z,13.26
2023-02-23T15:11:08.494Z,13.13
2023-02-23T15:16:10.296Z,12.97
2023-02-23T15:21:12.327Z,12.84
2023-02-23T15:26:23.666Z,12.81
2023-02-23T15:31:15.768Z,12.73
2023-02-23T15:36:17.466Z,12.6
2023-02-23T15:41:18.964Z,12.48
2023-02-23T15:46:20.651Z,12.31
2023-02-23T15:51:22.314Z,11.99
2023-02-23T15:56:23.526Z,11.64
2023-02-23T16:01:25.116Z,11.47
2023-02-23T16:06:26.690Z,11.46
2023-02-23T16:11:28.440Z,11.32
2023-02-23T16:16:30.306Z,11.24
2023-02-23T16:21:32.307Z,11.16
2023-02-23T16:26:34.102Z,11.12
2023-02-23T16:31:35.665Z,11.06
2023-02-23T16:36:37.587Z,10.96
2023-02-23T16:41:39.172Z,10.87
2023-02-23T16:46:40.979Z,10.81
2023-02-23T16:51:42.688Z,10.68
2023-02-23T16:56:44.343Z,10.57
2023-02-23T17:01:45.648Z,10.52
2023-02-23T17:06:47.012Z,10.43
2023-02-23T17:11:58.012Z,10.3
2023-02-23T17:16:50.672Z,10.24
2023-02-23T17:21:52.551Z,10.12
2023-02-23T17:26:54.038Z,9.95
2023-02-23T17:31:56.468Z,9.82
2023-02-23T17:36:57.766Z,9.72
2023-02-23T17:41:59.858Z,9.59
2023-02-23T17:47:01.492Z,9.49
2023-02-23T17:52:02.991Z,9.41
2023-02-23T17:57:04.311Z,9.3
2023-02-23T18:02:06.376Z,9.26
2023-02-23T18:07:08.173Z,9.22
2023-02-23T18:12:09.374Z,9.14
2023-02-23T18:17:11.105Z,9.01
2023-02-23T18:22:13.159Z,8.89
2023-02-23T18:27:14.381Z,8.77
2023-02-23T18:32:15.667Z,8.66
2023-02-23T18:37:17.769Z,8.47
2023-02-23T18:42:19.705Z,8.35
2023-02-23T18:47:21.581Z,8.22
2023-02-23T18:52:23.211Z,8.09
2023-02-23T18:57:26.100Z,7.95
2023-02-23T19:02:27.325Z,7.75
2023-02-23T19:07:29.108Z,7.53
2023-02-23T19:12:30.408Z,7.37
2023-02-23T19:17:32.578Z,7.29
2023-02-23T19:22:33.911Z,7.1
2023-02-23T19:27:35.576Z,7.04
2023-02-23T19:32:37.869Z,7.01
2023-02-23T19:37:39.714Z,6.96
2023-02-23T19:42:41.338Z,6.91
2023-02-23T19:47:43.022Z,6.86
2023-02-23T19:52:44.667Z,6.82
2023-02-23T19:57:45.807Z,6.77
2023-02-23T20:02:47.887Z,6.7
2023-02-23T20:07:49.188Z,6.67
2023-02-23T20:12:50.887Z,6.56
2023-02-23T20:17:52.184Z,6.36
2023-02-23T20:22:53.603Z,6.26
2023-02-23T20:27:54.987Z,6.2
2023-02-23T20:32:56.474Z,6.09
2023-02-23T20:37:58.026Z,6.03
2023-02-23T20:42:59.417Z,5.97
2023-02-23T20:48:01.179Z,5.87
2023-02-23T20:53:02.450Z,5.85
2023-02-23T20:58:04.611Z,5.75
2023-02-23T21:03:06.497Z,5.65
2023-02-23T21:08:08.487Z,5.6
2023-02-23T21:13:09.910Z,5.54
2023-02-23T21:18:11.888Z,5.44
2023-02-23T21:23:13.153Z,5.39
2023-02-23T21:28:23.172Z,5.36
2023-02-23T21:33:16.557Z,5.33
2023-02-23T21:38:18.335Z,5.29
2023-02-23T21:43:19.741Z,5.27
2023-02-23T21:48:29.617Z,5.22
2023-02-23T21:53:23.145Z,5.19
2023-02-23T21:58:24.495Z,5.11
2023-02-23T22:03:26.504Z,4.92
2023-02-23T22:08:27.897Z,4.88
2023-02-23T22:13:30.095Z,4.87
2023-02-23T22:18:32.214Z,4.85
2023-02-23T22:23:33.602Z,4.83
2023-02-23T22:28:35.021Z,4.82
2023-02-23T22:33:36.447Z,4.82
2023-02-23T22:38:38.558Z,4.79
2023-02-23T22:43:40.264Z,4.8
2023-02-23T22:48:42.120Z,4.84
2023-02-23T22:53:44.166Z,4.92
2023-02-23T22:58:45.943Z,4.94
2023-02-23T23:13:51.976Z,4.98
2023-02-23T23:18:53.644Z,5.02
2023-02-23T23:23:55.809Z,5.06
2023-02-23T23:28:57.426Z,5.08
2023-02-23T23:33:58.634Z,5.11
2023-02-23T23:39:00.501Z,5.13
2023-02-23T23:44:02.546Z,5.18
2023-02-23T23:49:04.123Z,5.21
2023-02-23T23:54:05.422Z,5.25
2023-02-23T23:59:07.143Z,5.27
